メインページ
METAR-TAF:

METAR-TAF

空港 :

グラン・カナリア島, スペイン

グラン・カナリア空港

緯度: 27-56N, 経度: 015-23W, 海抜: 23m

現時点の気象観測

当レポートは21分前の20:30(UTC)に作成
の風 15kt
気温 18°C
湿度 88%
気圧 1014 hPa
視程: 5000m
高度3500ftの雲は散在している
高度4500ftの雲は散在している
高度5000ftの千切れ雲あり

METAR: GCLP 112030Z 36015KT 5000 RA SCT035 SCT045 BKN050 18/16 Q1014 NOSIG

時間: 20:51 (20:51 UTC)

予報

当レポートは51分前の20:00(UTC)に作成
予報は11日の 21時(UTC)から 12日の 21時(UTC)まで有効
の風 22kt
視程10km以上
高度3000ftの千切れ雲あり
11日の 21時(UTC)から 12日の 21時(UTC)まで一時的に
の風 25kt、最大35ktの突風を伴う
11日の 21時(UTC)から 12日の 02時(UTC)まで一時的に
視程: 3000m

TAF: GCLP 112000Z 1121/1221 36022KT 9999 BKN030 TX21/1215Z TN16/1206Z TEMPO 1121/1221 36025G35KT TEMPO 1121/1202 3000 RA

4,000以上の空港の気象観測と天気予報(METAR報とTAF報)

利用可能な観測所は地図上に黄色い丸と赤い丸で示す。

丸の上にカーソルを重ねると観測所名を参照できる。

次にクリックすると気象観測と天気予報を参照できる。

マップの切り替え:黒色「×」印の緑ボタンをクリックして拡大、「-」印の緑ボタンをクリックして縮小、緑色の三角印をクリックして隣りの地図に切り替え


METAR-TAF: